sensor_id;sensor_type;location;lat;lon;timestamp;pressure;altitude;pressure_sealevel;temperature;humidity
60871;BME280;46714;50.118;14.462;2024-01-15T00:02:23;97254.03;;;-0.59;90.60
60871;BME280;46714;50.118;14.462;2024-01-15T00:04:49;97259.38;;;-0.59;90.92
60871;BME280;46714;50.118;14.462;2024-01-15T00:07:14;97248.03;;;-0.61;91.28
60871;BME280;46714;50.118;14.462;2024-01-15T00:09:39;97254.22;;;-0.61;91.55
60871;BME280;46714;50.118;14.462;2024-01-15T00:12:05;97254.59;;;-0.64;92.06
60871;BME280;46714;50.118;14.462;2024-01-15T00:14:31;97247.97;;;-0.68;92.07
60871;BME280;46714;50.118;14.462;2024-01-15T00:16:57;97239.72;;;-0.73;91.70
60871;BME280;46714;50.118;14.462;2024-01-15T00:19:22;97241.28;;;-0.79;92.20
60871;BME280;46714;50.118;14.462;2024-01-15T00:21:48;97234.66;;;-0.83;93.03
60871;BME280;46714;50.118;14.462;2024-01-15T00:24:14;97236.69;;;-0.85;93.20
60871;BME280;46714;50.118;14.462;2024-01-15T00:26:39;97236.91;;;-0.87;93.21
60871;BME280;46714;50.118;14.462;2024-01-15T00:29:08;97231.75;;;-0.88;93.77
60871;BME280;46714;50.118;14.462;2024-01-15T00:31:34;97232.78;;;-0.89;93.64
60871;BME280;46714;50.118;14.462;2024-01-15T00:33:59;97228.44;;;-0.90;93.41
60871;BME280;46714;50.118;14.462;2024-01-15T00:36:25;97232.97;;;-0.91;93.92
60871;BME280;46714;50.118;14.462;2024-01-15T00:38:51;97233.94;;;-0.92;93.27
60871;BME280;46714;50.118;14.462;2024-01-15T00:41:16;97229.47;;;-0.91;93.16
60871;BME280;46714;50.118;14.462;2024-01-15T00:43:44;97222.28;;;-0.91;93.52
60871;BME280;46714;50.118;14.462;2024-01-15T00:46:10;97213.22;;;-0.90;93.60
60871;BME280;46714;50.118;14.462;2024-01-15T00:48:35;97206.25;;;-0.91;92.96
60871;BME280;46714;50.118;14.462;2024-01-15T00:51:01;97202.75;;;-0.91;92.66
60871;BME280;46714;50.118;14.462;2024-01-15T00:53:26;97203.56;;;-0.91;92.67
60871;BME280;46714;50.118;14.462;2024-01-15T00:55:52;97205.44;;;-0.91;93.30
60871;BME280;46714;50.118;14.462;2024-01-15T00:58:18;97199.25;;;-0.92;92.81
60871;BME280;46714;50.118;14.462;2024-01-15T01:00:44;97205.59;;;-0.93;92.63
60871;BME280;46714;50.118;14.462;2024-01-15T01:03:09;97194.09;;;-0.93;92.48
60871;BME280;46714;50.118;14.462;2024-01-15T01:05:34;97194.94;;;-0.93;92.22
60871;BME280;46714;50.118;14.462;2024-01-15T01:08:00;97186.47;;;-0.96;92.34
60871;BME280;46714;50.118;14.462;2024-01-15T01:10:25;97189.97;;;-0.96;92.85
60871;BME280;46714;50.118;14.462;2024-01-15T01:12:51;97189.78;;;-0.94;91.95
60871;BME280;46714;50.118;14.462;2024-01-15T01:15:17;97185.47;;;-0.95;92.07
60871;BME280;46714;50.118;14.462;2024-01-15T01:17:42;97179.94;;;-0.94;92.39
60871;BME280;46714;50.118;14.462;2024-01-15T01:20:07;97180.75;;;-0.93;92.13
60871;BME280;46714;50.118;14.462;2024-01-15T01:22:34;97184.44;;;-0.94;91.73
60871;BME280;46714;50.118;14.462;2024-01-15T01:24:59;97185.28;;;-0.94;91.91
60871;BME280;46714;50.118;14.462;2024-01-15T01:27:25;97182.59;;;-0.94;91.90
60871;BME280;46714;50.118;14.462;2024-01-15T01:29:50;97171.28;;;-0.96;91.18
60871;BME280;46714;50.118;14.462;2024-01-15T01:32:16;97178.28;;;-0.95;91.29
60871;BME280;46714;50.118;14.462;2024-01-15T01:34:42;97175.41;;;-0.93;91.78
60871;BME280;46714;50.118;14.462;2024-01-15T01:37:08;97179.09;;;-0.94;91.08
60871;BME280;46714;50.118;14.462;2024-01-15T01:39:34;97179.94;;;-0.94;90.98
60871;BME280;46714;50.118;14.462;2024-01-15T01:41:59;97178.91;;;-0.93;91.37
60871;BME280;46714;50.118;14.462;2024-01-15T01:44:24;97171.72;;;-0.92;90.54
60871;BME280;46714;50.118;14.462;2024-01-15T01:46:50;97173.75;;;-0.94;90.26
60871;BME280;46714;50.118;14.462;2024-01-15T01:49:15;97163.91;;;-0.94;90.99
60871;BME280;46714;50.118;14.462;2024-01-15T01:51:41;97170.25;;;-0.95;90.11
60871;BME280;46714;50.118;14.462;2024-01-15T01:54:06;97164.91;;;-0.95;90.06
60871;BME280;46714;50.118;14.462;2024-01-15T01:56:34;97156.91;;;-0.95;90.43
60871;BME280;46714;50.118;14.462;2024-01-15T01:59:00;97157.72;;;-0.94;90.55
60871;BME280;46714;50.118;14.462;2024-01-15T02:01:27;97165.72;;;-0.94;90.67
60871;BME280;46714;50.118;14.462;2024-01-15T02:03:54;97156.91;;;-0.95;89.48
60871;BME280;46714;50.118;14.462;2024-01-15T02:06:21;97145.41;;;-0.95;90.29
60871;BME280;46714;50.118;14.462;2024-01-15T02:08:47;97158.13;;;-0.97;89.33
60871;BME280;46714;50.118;14.462;2024-01-15T02:11:13;97155.44;;;-0.97;89.49
60871;BME280;46714;50.118;14.462;2024-01-15T02:13:39;97157.31;;;-0.98;89.57
60871;BME280;46714;50.118;14.462;2024-01-15T02:16:04;97155.25;;;-0.96;89.76
60871;BME280;46714;50.118;14.462;2024-01-15T02:18:38;97150.09;;;-0.97;89.55
60871;BME280;46714;50.118;14.462;2024-01-15T02:21:05;97150.28;;;-0.99;90.24
60871;BME280;46714;50.118;14.462;2024-01-15T02:23:31;97145.97;;;-1.00;89.60
60871;BME280;46714;50.118;14.462;2024-01-15T02:25:56;97149.66;;;-1.01;89.51
60871;BME280;46714;50.118;14.462;2024-01-15T02:28:22;97148.00;;;-1.02;89.30
60871;BME280;46714;50.118;14.462;2024-01-15T02:30:47;97143.69;;;-1.03;89.85
60871;BME280;46714;50.118;14.462;2024-01-15T02:33:12;97128.69;;;-1.04;89.71
60871;BME280;46714;50.118;14.462;2024-01-15T02:35:38;97131.53;;;-1.06;89.95
60871;BME280;46714;50.118;14.462;2024-01-15T02:38:04;97123.53;;;-1.06;90.33
60871;BME280;46714;50.118;14.462;2024-01-15T02:40:30;97128.88;;;-1.06;89.58
60871;BME280;46714;50.118;14.462;2024-01-15T02:42:56;97121.06;;;-1.07;89.76
60871;BME280;46714;50.118;14.462;2024-01-15T02:45:21;97122.28;;;-1.10;90.24
60871;BME280;46714;50.118;14.462;2024-01-15T02:47:48;97126.78;;;-1.10;89.52
60871;BME280;46714;50.118;14.462;2024-01-15T02:50:13;97123.09;;;-1.09;89.66
60871;BME280;46714;50.118;14.462;2024-01-15T02:52:39;97130.47;;;-1.11;89.90
60871;BME280;46714;50.118;14.462;2024-01-15T02:55:04;97122.47;;;-1.11;89.80
60871;BME280;46714;50.118;14.462;2024-01-15T02:57:30;97120.81;;;-1.12;89.80
60871;BME280;46714;50.118;14.462;2024-01-15T02:59:55;97123.50;;;-1.12;90.51
60871;BME280;46714;50.118;14.462;2024-01-15T03:02:21;97121.81;;;-1.13;90.02
60871;BME280;46714;50.118;14.462;2024-01-15T03:04:46;97122.66;;;-1.13;90.23
60871;BME280;46714;50.118;14.462;2024-01-15T03:07:12;97116.66;;;-1.15;89.63
60871;BME280;46714;50.118;14.462;2024-01-15T03:09:37;97121.00;;;-1.14;89.83
60871;BME280;46714;50.118;14.462;2024-01-15T03:12:03;97126.53;;;-1.15;89.98
60871;BME280;46714;50.118;14.462;2024-01-15T03:14:29;97123.84;;;-1.15;90.27
60871;BME280;46714;50.118;14.462;2024-01-15T03:16:54;97123.03;;;-1.16;90.69
60871;BME280;46714;50.118;14.462;2024-01-15T03:19:20;97105.38;;;-1.17;90.01
60871;BME280;46714;50.118;14.462;2024-01-15T03:21:45;97102.88;;;-1.18;89.61
60871;BME280;46714;50.118;14.462;2024-01-15T03:24:11;97102.44;;;-1.22;89.97
60871;BME280;46714;50.118;14.462;2024-01-15T03:26:36;97099.97;;;-1.23;90.15
60871;BME280;46714;50.118;14.462;2024-01-15T03:29:01;97097.66;;;-1.27;89.65
60871;BME280;46714;50.118;14.462;2024-01-15T03:31:27;97088.22;;;-1.29;89.23
60871;BME280;46714;50.118;14.462;2024-01-15T03:33:52;97083.91;;;-1.30;89.25
60871;BME280;46714;50.118;14.462;2024-01-15T03:36:17;97085.94;;;-1.32;89.98
60871;BME280;46714;50.118;14.462;2024-01-15T03:38:43;97078.09;;;-1.34;89.70
60871;BME280;46714;50.118;14.462;2024-01-15T03:41:08;97085.47;;;-1.36;89.68
60871;BME280;46714;50.118;14.462;2024-01-15T03:43:34;97090.00;;;-1.36;90.07
60871;BME280;46714;50.118;14.462;2024-01-15T03:45:59;97103.50;;;-1.38;90.27
60871;BME280;46714;50.118;14.462;2024-01-15T03:48:24;97107.03;;;-1.37;89.91
60871;BME280;46714;50.118;14.462;2024-01-15T03:50:50;97118.53;;;-1.37;90.12
60871;BME280;46714;50.118;14.462;2024-01-15T03:53:15;97115.66;;;-1.35;89.15
60871;BME280;46714;50.118;14.462;2024-01-15T03:55:41;97121.19;;;-1.37;89.24
60871;BME280;46714;50.118;14.462;2024-01-15T03:58:07;97118.69;;;-1.38;88.99
60871;BME280;46714;50.118;14.462;2024-01-15T04:00:32;97109.25;;;-1.41;88.94
60871;BME280;46714;50.118;14.462;2024-01-15T04:02:58;97109.25;;;-1.41;88.90
60871;BME280;46714;50.118;14.462;2024-01-15T04:05:23;97118.28;;;-1.42;88.87
60871;BME280;46714;50.118;14.462;2024-01-15T04:07:48;97117.00;;;-1.46;88.27
60871;BME280;46714;50.118;14.462;2024-01-15T04:10:14;97105.28;;;-1.45;88.56
60871;BME280;46714;50.118;14.462;2024-01-15T04:12:39;97118.00;;;-1.47;88.55
60871;BME280;46714;50.118;14.462;2024-01-15T04:15:05;97114.50;;;-1.48;88.81
60871;BME280;46714;50.118;14.462;2024-01-15T04:17:31;97113.03;;;-1.50;89.12
60871;BME280;46714;50.118;14.462;2024-01-15T04:19:56;97117.56;;;-1.51;89.05
60871;BME280;46714;50.118;14.462;2024-01-15T04:22:21;97124.94;;;-1.53;89.13
60871;BME280;46714;50.118;14.462;2024-01-15T04:24:47;97128.59;;;-1.54;89.37
60871;BME280;46714;50.118;14.462;2024-01-15T04:27:13;97118.94;;;-1.55;88.73
60871;BME280;46714;50.118;14.462;2024-01-15T04:29:38;97112.34;;;-1.59;89.35
60871;BME280;46714;50.118;14.462;2024-01-15T04:32:04;97097.16;;;-1.58;89.12
60871;BME280;46714;50.118;14.462;2024-01-15T04:34:30;97090.34;;;-1.61;89.57
60871;BME280;46714;50.118;14.462;2024-01-15T04:36:55;97097.53;;;-1.61;89.93
60871;BME280;46714;50.118;14.462;2024-01-15T04:39:21;97097.53;;;-1.61;89.56
60871;BME280;46714;50.118;14.462;2024-01-15T04:41:47;97095.91;;;-1.62;90.10
60871;BME280;46714;50.118;14.462;2024-01-15T04:44:12;97094.22;;;-1.63;90.19
60871;BME280;46714;50.118;14.462;2024-01-15T04:46:38;97096.06;;;-1.64;89.85
60871;BME280;46714;50.118;14.462;2024-01-15T04:49:03;97100.38;;;-1.63;90.27
60871;BME280;46714;50.118;14.462;2024-01-15T04:51:28;97109.22;;;-1.62;90.39
60871;BME280;46714;50.118;14.462;2024-01-15T04:53:54;97110.22;;;-1.63;89.69
60871;BME280;46714;50.118;14.462;2024-01-15T04:56:19;97106.56;;;-1.62;89.99
60871;BME280;46714;50.118;14.462;2024-01-15T04:58:45;97118.41;;;-1.65;90.09
60871;BME280;46714;50.118;14.462;2024-01-15T05:01:10;97100.94;;;-1.67;89.62
60871;BME280;46714;50.118;14.462;2024-01-15T05:03:36;97110.97;;;-1.70;89.40
60871;BME280;46714;50.118;14.462;2024-01-15T05:06:01;97102.97;;;-1.70;89.40
60871;BME280;46714;50.118;14.462;2024-01-15T05:08:26;97106.66;;;-1.71;90.02
60871;BME280;46714;50.118;14.462;2024-01-15T05:10:52;97112.81;;;-1.70;90.22
60871;BME280;46714;50.118;14.462;2024-01-15T05:13:17;97115.69;;;-1.72;90.19
60871;BME280;46714;50.118;14.462;2024-01-15T05:15:42;97119.19;;;-1.71;90.47
60871;BME280;46714;50.118;14.462;2024-01-15T05:18:08;97118.38;;;-1.72;90.10
60871;BME280;46714;50.118;14.462;2024-01-15T05:20:33;97101.44;;;-1.79;89.47
60871;BME280;46714;50.118;14.462;2024-01-15T05:22:59;97119.34;;;-1.73;89.56
60871;BME280;46714;50.118;14.462;2024-01-15T05:25:24;97123.69;;;-1.72;89.20
60871;BME280;46714;50.118;14.462;2024-01-15T05:27:50;97129.03;;;-1.72;90.02
60871;BME280;46714;50.118;14.462;2024-01-15T05:30:15;97127.34;;;-1.73;90.10
60871;BME280;46714;50.118;14.462;2024-01-15T05:32:41;97133.50;;;-1.72;90.25
60871;BME280;46714;50.118;14.462;2024-01-15T05:35:06;97137.03;;;-1.72;90.00
60871;BME280;46714;50.118;14.462;2024-01-15T05:37:32;97136.00;;;-1.71;90.10
60871;BME280;46714;50.118;14.462;2024-01-15T05:39:57;97144.00;;;-1.71;89.80
60871;BME280;46714;50.118;14.462;2024-01-15T05:42:23;97141.34;;;-1.71;89.09
60871;BME280;46714;50.118;14.462;2024-01-15T05:44:48;97134.16;;;-1.70;89.88
60871;BME280;46714;50.118;14.462;2024-01-15T05:47:14;97138.66;;;-1.71;88.99
60871;BME280;46714;50.118;14.462;2024-01-15T05:49:39;97135.19;;;-1.71;89.37
60871;BME280;46714;50.118;14.462;2024-01-15T05:52:05;97137.03;;;-1.72;88.61
60871;BME280;46714;50.118;14.462;2024-01-15T05:54:31;97146.66;;;-1.71;88.94
60871;BME280;46714;50.118;14.462;2024-01-15T05:56:56;97133.34;;;-1.71;88.35
60871;BME280;46714;50.118;14.462;2024-01-15T05:59:21;97121.63;;;-1.70;88.69
60871;BME280;46714;50.118;14.462;2024-01-15T06:01:47;97131.13;;;-1.67;88.98
60871;BME280;46714;50.118;14.462;2024-01-15T06:04:12;97137.47;;;-1.68;88.87
60871;BME280;46714;50.118;14.462;2024-01-15T06:06:38;97135.63;;;-1.67;89.27
60871;BME280;46714;50.118;14.462;2024-01-15T06:09:03;97128.66;;;-1.69;88.15
60871;BME280;46714;50.118;14.462;2024-01-15T06:11:33;97122.50;;;-1.69;88.67
60871;BME280;46714;50.118;14.462;2024-01-15T06:13:59;97128.00;;;-1.71;88.62
60871;BME280;46714;50.118;14.462;2024-01-15T06:16:28;97129.22;;;-1.73;88.11
60871;BME280;46714;50.118;14.462;2024-01-15T06:18:53;97125.06;;;-1.76;88.12
60871;BME280;46714;50.118;14.462;2024-01-15T06:21:19;97122.75;;;-1.79;87.89
60871;BME280;46714;50.118;14.462;2024-01-15T06:23:45;97140.81;;;-1.81;88.13
60871;BME280;46714;50.118;14.462;2024-01-15T06:26:13;97143.03;;;-1.84;89.06
60871;BME280;46714;50.118;14.462;2024-01-15T06:28:38;97144.41;;;-1.88;89.11
60871;BME280;46714;50.118;14.462;2024-01-15T06:31:05;97144.78;;;-1.92;89.32
60871;BME280;46714;50.118;14.462;2024-01-15T06:33:31;97141.47;;;-1.94;88.97
60871;BME280;46714;50.118;14.462;2024-01-15T06:35:57;97151.66;;;-1.97;89.53
60871;BME280;46714;50.118;14.462;2024-01-15T06:38:22;97153.72;;;-1.99;88.75
60871;BME280;46714;50.118;14.462;2024-01-15T06:40:48;97162.06;;;-2.02;89.06
60871;BME280;46714;50.118;14.462;2024-01-15T06:43:14;97159.78;;;-2.05;89.71
60871;BME280;46714;50.118;14.462;2024-01-15T06:45:40;97164.63;;;-2.09;90.18
60871;BME280;46714;50.118;14.462;2024-01-15T06:48:06;97161.31;;;-2.11;89.79
60871;BME280;46714;50.118;14.462;2024-01-15T06:50:32;97166.22;;;-2.15;90.39
60871;BME280;46714;50.118;14.462;2024-01-15T06:52:58;97173.56;;;-2.17;90.44
60871;BME280;46714;50.118;14.462;2024-01-15T06:55:23;97166.56;;;-2.18;89.93
60871;BME280;46714;50.118;14.462;2024-01-15T06:57:49;97182.75;;;-2.19;90.23
60871;BME280;46714;50.118;14.462;2024-01-15T07:00:14;97175.75;;;-2.20;89.67
60871;BME280;46714;50.118;14.462;2024-01-15T07:02:40;97187.44;;;-2.21;89.92
60871;BME280;46714;50.118;14.462;2024-01-15T07:05:06;97189.44;;;-2.23;90.35
60871;BME280;46714;50.118;14.462;2024-01-15T07:07:31;97197.44;;;-2.23;89.96
60871;BME280;46714;50.118;14.462;2024-01-15T07:09:57;97201.94;;;-2.24;90.42
60871;BME280;46714;50.118;14.462;2024-01-15T07:12:22;97207.28;;;-2.24;90.88
60871;BME280;46714;50.118;14.462;2024-01-15T07:14:48;97217.75;;;-2.22;90.16
60871;BME280;46714;50.118;14.462;2024-01-15T07:17:14;97219.25;;;-2.20;90.58
60871;BME280;46714;50.118;14.462;2024-01-15T07:19:40;97233.19;;;-2.18;90.97
60871;BME280;46714;50.118;14.462;2024-01-15T07:22:06;97233.84;;;-2.16;90.87
60871;BME280;46714;50.118;14.462;2024-01-15T07:24:31;97220.16;;;-2.13;90.69
60871;BME280;46714;50.118;14.462;2024-01-15T07:26:59;97235.59;;;-2.08;90.15
60871;BME280;46714;50.118;14.462;2024-01-15T07:29:24;97230.72;;;-2.04;91.05
60871;BME280;46714;50.118;14.462;2024-01-15T07:31:50;97233.03;;;-2.01;90.60
60871;BME280;46714;50.118;14.462;2024-01-15T07:34:16;97228.16;;;-1.98;89.71
60871;BME280;46714;50.118;14.462;2024-01-15T07:36:45;97229.63;;;-1.95;90.06
60871;BME280;46714;50.118;14.462;2024-01-15T07:39:10;97233.97;;;-1.94;89.99
60871;BME280;46714;50.118;14.462;2024-01-15T07:41:36;97232.75;;;-1.92;89.99
60871;BME280;46714;50.118;14.462;2024-01-15T07:44:02;97232.38;;;-1.88;89.96
60871;BME280;46714;50.118;14.462;2024-01-15T07:46:27;97230.19;;;-1.85;89.59
60871;BME280;46714;50.118;14.462;2024-01-15T07:48:53;97229.81;;;-1.82;88.90
60871;BME280;46714;50.118;14.462;2024-01-15T07:51:24;97228.81;;;-1.81;88.79
60871;BME280;46714;50.118;14.462;2024-01-15T07:53:50;97222.47;;;-1.80;89.26
60871;BME280;46714;50.118;14.462;2024-01-15T07:56:18;97230.06;;;-1.77;89.29
60871;BME280;46714;50.118;14.462;2024-01-15T07:58:43;97219.06;;;-1.74;88.00
60871;BME280;46714;50.118;14.462;2024-01-15T08:01:09;97217.03;;;-1.72;88.58
60871;BME280;46714;50.118;14.462;2024-01-15T08:03:34;97209.66;;;-1.70;87.90
60871;BME280;46714;50.118;14.462;2024-01-15T08:05:59;97200.09;;;-1.64;87.69
60871;BME280;46714;50.118;14.462;2024-01-15T08:08:25;97197.91;;;-1.60;87.20
60871;BME280;46714;50.118;14.462;2024-01-15T08:10:53;97198.97;;;-1.55;86.61
60871;BME280;46714;50.118;14.462;2024-01-15T08:13:18;97197.13;;;-1.54;86.98
60871;BME280;46714;50.118;14.462;2024-01-15T08:15:45;97193.09;;;-1.50;86.88
60871;BME280;46714;50.118;14.462;2024-01-15T08:18:10;97191.06;;;-1.48;86.82
60871;BME280;46714;50.118;14.462;2024-01-15T08:20:35;97184.97;;;-1.42;86.33
60871;BME280;46714;50.118;14.462;2024-01-15T08:23:02;97184.22;;;-1.36;86.16
60871;BME280;46714;50.118;14.462;2024-01-15T08:25:28;97189.81;;;-1.31;85.64
60871;BME280;46714;50.118;14.462;2024-01-15T08:27:53;97190.44;;;-1.29;85.71
60871;BME280;46714;50.118;14.462;2024-01-15T08:30:19;97189.06;;;-1.24;85.92
60871;BME280;46714;50.118;14.462;2024-01-15T08:32:45;97187.84;;;-1.22;85.86
60871;BME280;46714;50.118;14.462;2024-01-15T08:35:11;97191.34;;;-1.21;85.51
60871;BME280;46714;50.118;14.462;2024-01-15T08:37:36;97185.47;;;-1.17;85.71
60871;BME280;46714;50.118;14.462;2024-01-15T08:40:03;97188.31;;;-1.18;85.64
60871;BME280;46714;50.118;14.462;2024-01-15T08:42:28;97189.94;;;-1.17;84.87
60871;BME280;46714;50.118;14.462;2024-01-15T08:44:54;97191.22;;;-1.13;85.00
60871;BME280;46714;50.118;14.462;2024-01-15T08:47:19;97182.84;;;-1.10;85.71
60871;BME280;46714;50.118;14.462;2024-01-15T08:49:45;97181.44;;;-1.06;84.85
60871;BME280;46714;50.118;14.462;2024-01-15T08:52:11;97182.25;;;-1.06;83.67
60871;BME280;46714;50.118;14.462;2024-01-15T08:54:36;97174.25;;;-1.06;83.66
60871;BME280;46714;50.118;14.462;2024-01-15T08:57:02;97188.06;;;-1.02;84.29
60871;BME280;46714;50.118;14.462;2024-01-15T08:59:27;97178.03;;;-1.00;83.90
60871;BME280;46714;50.118;14.462;2024-01-15T09:01:53;97175.34;;;-1.00;83.36
60871;BME280;46714;50.118;14.462;2024-01-15T09:04:19;97181.69;;;-1.01;83.48
60871;BME280;46714;50.118;14.462;2024-01-15T09:06:47;97177.38;;;-1.02;82.90
60871;BME280;46714;50.118;14.462;2024-01-15T09:09:13;97181.34;;;-0.98;82.44
60871;BME280;46714;50.118;14.462;2024-01-15T09:11:39;97181.97;;;-0.96;82.32
60871;BME280;46714;50.118;14.462;2024-01-15T09:14:05;97181.75;;;-0.94;82.64
60871;BME280;46714;50.118;14.462;2024-01-15T09:16:30;97183.69;;;-0.88;82.57
60871;BME280;46714;50.118;14.462;2024-01-15T09:18:56;97177.13;;;-0.86;82.18
60871;BME280;46714;50.118;14.462;2024-01-15T09:21:22;97188.63;;;-0.85;81.48
60871;BME280;46714;50.118;14.462;2024-01-15T09:23:49;97182.47;;;-0.86;81.93
60871;BME280;46714;50.118;14.462;2024-01-15T09:26:15;97176.94;;;-0.84;81.22
60871;BME280;46714;50.118;14.462;2024-01-15T09:28:40;97184.13;;;-0.85;80.70
60871;BME280;46714;50.118;14.462;2024-01-15T09:31:05;97183.75;;;-0.81;80.92
60871;BME280;46714;50.118;14.462;2024-01-15T09:33:31;97185.19;;;-0.79;80.85
60871;BME280;46714;50.118;14.462;2024-01-15T09:35:56;97161.34;;;-0.80;80.86
60871;BME280;46714;50.118;14.462;2024-01-15T09:38:22;97171.84;;;-0.79;80.80
60871;BME280;46714;50.118;14.462;2024-01-15T09:40:49;97168.16;;;-0.78;80.45
60871;BME280;46714;50.118;14.462;2024-01-15T09:43:14;97171.25;;;-0.74;81.55
60871;BME280;46714;50.118;14.462;2024-01-15T09:45:41;97161.22;;;-0.72;81.71
60871;BME280;46714;50.118;14.462;2024-01-15T09:48:07;97158.53;;;-0.72;81.29
60871;BME280;46714;50.118;14.462;2024-01-15T09:50:33;97161.22;;;-0.72;80.88
60871;BME280;46714;50.118;14.462;2024-01-15T09:52:59;97156.69;;;-0.72;80.19
60871;BME280;46714;50.118;14.462;2024-01-15T09:55:25;97148.91;;;-0.67;80.68
60871;BME280;46714;50.118;14.462;2024-01-15T09:57:51;97159.59;;;-0.67;80.09
60871;BME280;46714;50.118;14.462;2024-01-15T10:00:19;97160.44;;;-0.66;79.44
60871;BME280;46714;50.118;14.462;2024-01-15T10:02:44;97148.09;;;-0.67;79.30
60871;BME280;46714;50.118;14.462;2024-01-15T10:05:10;97138.44;;;-0.68;79.06
60871;BME280;46714;50.118;14.462;2024-01-15T10:07:36;97132.47;;;-0.70;79.10
60871;BME280;46714;50.118;14.462;2024-01-15T10:10:03;97130.44;;;-0.68;78.95
60871;BME280;46714;50.118;14.462;2024-01-15T10:12:28;97123.22;;;-0.68;79.06
60871;BME280;46714;50.118;14.462;2024-01-15T10:14:55;97127.34;;;-0.65;79.20
60871;BME280;46714;50.118;14.462;2024-01-15T10:17:21;97122.66;;;-0.63;79.17
60871;BME280;46714;50.118;14.462;2024-01-15T10:19:46;97124.94;;;-0.60;79.48
60871;BME280;46714;50.118;14.462;2024-01-15T10:22:13;97123.91;;;-0.59;78.99
60871;BME280;46714;50.118;14.462;2024-01-15T10:24:40;97120.84;;;-0.56;79.38
60871;BME280;46714;50.118;14.462;2024-01-15T10:27:09;97113.88;;;-0.57;78.63
60871;BME280;46714;50.118;14.462;2024-01-15T10:29:35;97111.19;;;-0.57;78.55
60871;BME280;46714;50.118;14.462;2024-01-15T10:32:01;97102.16;;;-0.56;78.60
60871;BME280;46714;50.118;14.462;2024-01-15T10:34:27;97098.06;;;-0.52;78.41
60871;BME280;46714;50.118;14.462;2024-01-15T10:36:54;97097.88;;;-0.50;78.33
60871;BME280;46714;50.118;14.462;2024-01-15T10:39:23;97097.66;;;-0.49;78.09
60871;BME280;46714;50.118;14.462;2024-01-15T10:41:49;97102.63;;;-0.46;78.80
60871;BME280;46714;50.118;14.462;2024-01-15T10:44:16;97097.91;;;-0.44;77.57
60871;BME280;46714;50.118;14.462;2024-01-15T10:46:42;97107.19;;;-0.39;78.00
60871;BME280;46714;50.118;14.462;2024-01-15T10:49:08;97109.06;;;-0.33;77.84
60871;BME280;46714;50.118;14.462;2024-01-15T10:51:35;97104.38;;;-0.31;77.65
60871;BME280;46714;50.118;14.462;2024-01-15T10:54:01;97101.88;;;-0.33;76.49
60871;BME280;46714;50.118;14.462;2024-01-15T10:56:27;97099.03;;;-0.31;76.63
60871;BME280;46714;50.118;14.462;2024-01-15T10:58:55;97097.78;;;-0.29;76.96
60871;BME280;46714;50.118;14.462;2024-01-15T11:01:21;97100.28;;;-0.27;77.58
60871;BME280;46714;50.118;14.462;2024-01-15T11:03:47;97087.53;;;-0.25;77.26
60871;BME280;46714;50.118;14.462;2024-01-15T11:06:16;97098.66;;;-0.22;77.44
60871;BME280;46714;50.118;14.462;2024-01-15T11:08:44;97106.50;;;-0.20;77.38
60871;BME280;46714;50.118;14.462;2024-01-15T11:11:13;97092.50;;;-0.22;77.35
60871;BME280;46714;50.118;14.462;2024-01-15T11:13:41;97096.44;;;-0.18;76.74
60871;BME280;46714;50.118;14.462;2024-01-15T11:16:10;97107.94;;;-0.17;77.21
60871;BME280;46714;50.118;14.462;2024-01-15T11:18:43;97106.09;;;-0.17;76.87
60871;BME280;46714;50.118;14.462;2024-01-15T11:21:25;97115.78;;;-0.16;77.13
60871;BME280;46714;50.118;14.462;2024-01-15T11:23:54;97099.31;;;-0.13;76.76
60871;BME280;46714;50.118;14.462;2024-01-15T11:29:10;97092.34;;;-0.07;76.05
60871;BME280;46714;50.118;14.462;2024-01-15T11:34:20;97102.88;;;0.01;76.84
60871;BME280;46714;50.118;14.462;2024-01-15T11:41:54;97100.81;;;-0.04;76.62
60871;BME280;46714;50.118;14.462;2024-01-15T11:44:20;97090.09;;;-0.04;76.33
60871;BME280;46714;50.118;14.462;2024-01-15T11:46:49;97092.59;;;-0.02;76.84
60871;BME280;46714;50.118;14.462;2024-01-15T11:52:22;97099.56;;;-0.01;76.11
60871;BME280;46714;50.118;14.462;2024-01-15T11:57:41;97086.84;;;0.01;76.74
60871;BME280;46714;50.118;14.462;2024-01-15T12:00:16;97091.38;;;0.01;76.54
60871;BME280;46714;50.118;14.462;2024-01-15T12:02:43;97095.06;;;-0.01;77.10
60871;BME280;46714;50.118;14.462;2024-01-15T12:05:14;97080.03;;;-0.02;77.29
60871;BME280;46714;50.118;14.462;2024-01-15T12:07:44;97080.84;;;-0.01;77.58
60871;BME280;46714;50.118;14.462;2024-01-15T12:10:16;97076.13;;;0.01;77.36
60871;BME280;46714;50.118;14.462;2024-01-15T12:15:24;97079.00;;;-0.01;77.76
60871;BME280;46714;50.118;14.462;2024-01-15T12:17:51;97078.59;;;-0.04;77.55
60871;BME280;46714;50.118;14.462;2024-01-15T12:20:17;97080.63;;;-0.06;77.51
60871;BME280;46714;50.118;14.462;2024-01-15T12:22:43;97075.88;;;-0.11;77.91
60871;BME280;46714;50.118;14.462;2024-01-15T12:25:09;97082.69;;;-0.08;77.37
60871;BME280;46714;50.118;14.462;2024-01-15T12:27:35;97082.09;;;-0.04;78.25
60871;BME280;46714;50.118;14.462;2024-01-15T12:30:01;97086.41;;;-0.03;77.60
60871;BME280;46714;50.118;14.462;2024-01-15T12:32:27;97084.34;;;-0.01;77.44
60871;BME280;46714;50.118;14.462;2024-01-15T12:34:54;97091.75;;;-0.03;77.51
60871;BME280;46714;50.118;14.462;2024-01-15T12:37:20;97084.75;;;-0.04;77.97
60871;BME280;46714;50.118;14.462;2024-01-15T12:39:46;97077.16;;;-0.07;77.85
60871;BME280;46714;50.118;14.462;2024-01-15T12:42:14;97076.09;;;-0.06;78.04
60871;BME280;46714;50.118;14.462;2024-01-15T12:44:40;97080.81;;;-0.08;77.55
60871;BME280;46714;50.118;14.462;2024-01-15T12:47:06;97085.34;;;-0.08;78.53
60871;BME280;46714;50.118;14.462;2024-01-15T12:49:32;97080.19;;;-0.10;77.81
60871;BME280;46714;50.118;14.462;2024-01-15T12:51:57;97081.00;;;-0.09;78.11
60871;BME280;46714;50.118;14.462;2024-01-15T12:54:23;97080.81;;;-0.08;78.26
60871;BME280;46714;50.118;14.462;2024-01-15T12:56:52;97084.94;;;-0.05;78.42
60871;BME280;46714;50.118;14.462;2024-01-15T12:59:18;97086.00;;;-0.06;77.67
60871;BME280;46714;50.118;14.462;2024-01-15T13:01:44;97085.16;;;-0.07;76.99
60871;BME280;46714;50.118;14.462;2024-01-15T13:04:11;97083.50;;;-0.08;77.51